sensor_id;sensor_type;location;lat;lon;timestamp;P1;durP1;ratioP1;P2;durP2;ratioP2
62951;SDS011;52163;52.212;-1.002;2022-09-02T00:00:52;12.50;;;2.80;;
62951;SDS011;52163;52.212;-1.002;2022-09-02T00:03:24;5.80;;;2.60;;
62951;SDS011;52163;52.212;-1.002;2022-09-02T00:05:55;9.40;;;2.80;;
62951;SDS011;52163;52.212;-1.002;2022-09-02T00:08:21;6.50;;;2.80;;
62951;SDS011;52163;52.212;-1.002;2022-09-02T00:10:47;8.10;;;2.20;;
62951;SDS011;52163;52.212;-1.002;2022-09-02T00:13:14;5.90;;;2.30;;
62951;SDS011;52163;52.212;-1.002;2022-09-02T00:15:41;10.40;;;2.60;;
62951;SDS011;52163;52.212;-1.002;2022-09-02T00:18:07;5.60;;;2.10;;
62951;SDS011;52163;52.212;-1.002;2022-09-02T00:20:36;9.50;;;3.00;;
62951;SDS011;52163;52.212;-1.002;2022-09-02T00:23:03;7.70;;;2.60;;
62951;SDS011;52163;52.212;-1.002;2022-09-02T00:25:28;5.90;;;2.40;;
62951;SDS011;52163;52.212;-1.002;2022-09-02T00:27:54;8.40;;;2.40;;
62951;SDS011;52163;52.212;-1.002;2022-09-02T00:30:20;8.90;;;2.30;;
62951;SDS011;52163;52.212;-1.002;2022-09-02T00:32:45;7.50;;;2.40;;
62951;SDS011;52163;52.212;-1.002;2022-09-02T00:35:11;6.90;;;2.10;;
62951;SDS011;52163;52.212;-1.002;2022-09-02T00:37:37;10.60;;;2.60;;
62951;SDS011;52163;52.212;-1.002;2022-09-02T00:40:03;9.10;;;2.80;;
62951;SDS011;52163;52.212;-1.002;2022-09-02T00:42:30;8.10;;;2.60;;
62951;SDS011;52163;52.212;-1.002;2022-09-02T00:44:57;8.20;;;2.50;;
62951;SDS011;52163;52.212;-1.002;2022-09-02T00:47:22;8.00;;;2.50;;
62951;SDS011;52163;52.212;-1.002;2022-09-02T00:49:49;7.40;;;3.20;;
62951;SDS011;52163;52.212;-1.002;2022-09-02T00:52:19;10.70;;;2.90;;
62951;SDS011;52163;52.212;-1.002;2022-09-02T00:54:57;8.20;;;2.70;;
62951;SDS011;52163;52.212;-1.002;2022-09-02T00:57:27;7.30;;;2.30;;
62951;SDS011;52163;52.212;-1.002;2022-09-02T01:02:31;5.80;;;2.20;;
62951;SDS011;52163;52.212;-1.002;2022-09-02T01:04:58;9.10;;;2.50;;
62951;SDS011;52163;52.212;-1.002;2022-09-02T01:07:25;7.10;;;2.70;;
62951;SDS011;52163;52.212;-1.002;2022-09-02T01:09:54;10.30;;;2.60;;
62951;SDS011;52163;52.212;-1.002;2022-09-02T01:12:21;7.70;;;2.40;;
62951;SDS011;52163;52.212;-1.002;2022-09-02T01:14:47;6.40;;;2.10;;
62951;SDS011;52163;52.212;-1.002;2022-09-02T01:17:12;6.00;;;2.40;;
62951;SDS011;52163;52.212;-1.002;2022-09-02T01:19:43;5.90;;;2.30;;
62951;SDS011;52163;52.212;-1.002;2022-09-02T01:22:21;7.90;;;2.60;;
62951;SDS011;52163;52.212;-1.002;2022-09-02T01:24:49;7.50;;;2.70;;
62951;SDS011;52163;52.212;-1.002;2022-09-02T01:27:16;9.00;;;2.40;;
62951;SDS011;52163;52.212;-1.002;2022-09-02T01:29:43;6.50;;;2.30;;
62951;SDS011;52163;52.212;-1.002;2022-09-02T01:32:10;9.50;;;2.50;;
62951;SDS011;52163;52.212;-1.002;2022-09-02T01:34:36;6.50;;;2.30;;
62951;SDS011;52163;52.212;-1.002;2022-09-02T01:37:02;5.20;;;2.20;;
62951;SDS011;52163;52.212;-1.002;2022-09-02T01:39:28;5.20;;;2.30;;
62951;SDS011;52163;52.212;-1.002;2022-09-02T01:41:53;6.50;;;2.10;;
62951;SDS011;52163;52.212;-1.002;2022-09-02T01:44:19;14.50;;;2.80;;
62951;SDS011;52163;52.212;-1.002;2022-09-02T01:46:45;5.00;;;2.40;;
62951;SDS011;52163;52.212;-1.002;2022-09-02T01:49:11;5.80;;;2.10;;
62951;SDS011;52163;52.212;-1.002;2022-09-02T01:51:37;10.90;;;2.70;;
62951;SDS011;52163;52.212;-1.002;2022-09-02T01:54:02;9.30;;;2.50;;
62951;SDS011;52163;52.212;-1.002;2022-09-02T01:56:28;9.70;;;2.70;;
62951;SDS011;52163;52.212;-1.002;2022-09-02T01:58:53;6.50;;;2.60;;
62951;SDS011;52163;52.212;-1.002;2022-09-02T02:01:19;8.40;;;2.30;;
62951;SDS011;52163;52.212;-1.002;2022-09-02T02:03:44;6.50;;;2.30;;
62951;SDS011;52163;52.212;-1.002;2022-09-02T02:06:11;10.80;;;2.30;;
62951;SDS011;52163;52.212;-1.002;2022-09-02T02:08:40;7.60;;;2.40;;
62951;SDS011;52163;52.212;-1.002;2022-09-02T02:11:06;10.60;;;2.40;;
62951;SDS011;52163;52.212;-1.002;2022-09-02T02:13:33;9.10;;;2.50;;
62951;SDS011;52163;52.212;-1.002;2022-09-02T02:15:58;11.60;;;2.70;;
62951;SDS011;52163;52.212;-1.002;2022-09-02T02:18:24;10.40;;;2.60;;
62951;SDS011;52163;52.212;-1.002;2022-09-02T02:20:49;7.50;;;2.50;;
62951;SDS011;52163;52.212;-1.002;2022-09-02T02:23:15;9.80;;;2.50;;
62951;SDS011;52163;52.212;-1.002;2022-09-02T02:25:41;7.00;;;2.20;;
62951;SDS011;52163;52.212;-1.002;2022-09-02T02:28:07;10.80;;;2.00;;
62951;SDS011;52163;52.212;-1.002;2022-09-02T02:30:33;8.70;;;2.00;;
62951;SDS011;52163;52.212;-1.002;2022-09-02T02:32:59;8.00;;;2.20;;
62951;SDS011;52163;52.212;-1.002;2022-09-02T02:35:25;8.00;;;2.50;;
62951;SDS011;52163;52.212;-1.002;2022-09-02T02:37:51;10.70;;;2.80;;
62951;SDS011;52163;52.212;-1.002;2022-09-02T02:40:18;6.80;;;2.50;;
62951;SDS011;52163;52.212;-1.002;2022-09-02T02:42:46;9.70;;;2.20;;
62951;SDS011;52163;52.212;-1.002;2022-09-02T02:45:12;10.30;;;3.30;;
62951;SDS011;52163;52.212;-1.002;2022-09-02T02:47:39;7.90;;;2.70;;
62951;SDS011;52163;52.212;-1.002;2022-09-02T02:50:07;7.10;;;2.60;;
62951;SDS011;52163;52.212;-1.002;2022-09-02T02:52:36;8.90;;;2.40;;
62951;SDS011;52163;52.212;-1.002;2022-09-02T02:55:04;9.50;;;2.80;;
62951;SDS011;52163;52.212;-1.002;2022-09-02T02:57:30;11.50;;;3.10;;
62951;SDS011;52163;52.212;-1.002;2022-09-02T03:00:00;6.90;;;2.40;;
62951;SDS011;52163;52.212;-1.002;2022-09-02T03:02:29;8.70;;;2.80;;
62951;SDS011;52163;52.212;-1.002;2022-09-02T03:04:56;8.60;;;2.60;;
62951;SDS011;52163;52.212;-1.002;2022-09-02T03:07:22;7.40;;;2.40;;
62951;SDS011;52163;52.212;-1.002;2022-09-02T03:09:47;8.90;;;2.80;;
62951;SDS011;52163;52.212;-1.002;2022-09-02T03:12:13;8.30;;;2.40;;
62951;SDS011;52163;52.212;-1.002;2022-09-02T03:14:40;7.70;;;2.30;;
62951;SDS011;52163;52.212;-1.002;2022-09-02T03:17:06;8.00;;;2.40;;
62951;SDS011;52163;52.212;-1.002;2022-09-02T03:19:31;11.30;;;2.40;;
62951;SDS011;52163;52.212;-1.002;2022-09-02T03:21:57;7.60;;;2.40;;
62951;SDS011;52163;52.212;-1.002;2022-09-02T03:24:23;9.20;;;3.00;;
62951;SDS011;52163;52.212;-1.002;2022-09-02T03:26:48;7.90;;;2.70;;
62951;SDS011;52163;52.212;-1.002;2022-09-02T03:29:14;9.50;;;3.10;;
62951;SDS011;52163;52.212;-1.002;2022-09-02T03:31:39;10.80;;;3.00;;
62951;SDS011;52163;52.212;-1.002;2022-09-02T03:34:05;11.20;;;3.20;;
62951;SDS011;52163;52.212;-1.002;2022-09-02T03:36:32;9.20;;;2.70;;
62951;SDS011;52163;52.212;-1.002;2022-09-02T03:39:00;8.20;;;2.20;;
62951;SDS011;52163;52.212;-1.002;2022-09-02T03:41:27;10.90;;;2.90;;
62951;SDS011;52163;52.212;-1.002;2022-09-02T03:43:53;10.90;;;2.60;;
62951;SDS011;52163;52.212;-1.002;2022-09-02T03:46:18;7.10;;;2.60;;
62951;SDS011;52163;52.212;-1.002;2022-09-02T03:48:44;7.30;;;2.50;;
62951;SDS011;52163;52.212;-1.002;2022-09-02T03:51:10;10.50;;;2.70;;
62951;SDS011;52163;52.212;-1.002;2022-09-02T03:53:36;9.40;;;3.00;;
62951;SDS011;52163;52.212;-1.002;2022-09-02T03:56:10;5.60;;;2.70;;
62951;SDS011;52163;52.212;-1.002;2022-09-02T03:58:40;10.50;;;2.90;;
62951;SDS011;52163;52.212;-1.002;2022-09-02T04:01:07;6.70;;;2.30;;
62951;SDS011;52163;52.212;-1.002;2022-09-02T04:03:38;6.70;;;2.30;;
62951;SDS011;52163;52.212;-1.002;2022-09-02T04:06:04;10.40;;;2.70;;
62951;SDS011;52163;52.212;-1.002;2022-09-02T04:08:30;7.20;;;2.60;;
62951;SDS011;52163;52.212;-1.002;2022-09-02T04:10:55;4.60;;;2.40;;
62951;SDS011;52163;52.212;-1.002;2022-09-02T04:13:21;7.50;;;2.80;;
62951;SDS011;52163;52.212;-1.002;2022-09-02T04:15:46;7.70;;;2.80;;
62951;SDS011;52163;52.212;-1.002;2022-09-02T04:18:14;7.20;;;2.20;;
62951;SDS011;52163;52.212;-1.002;2022-09-02T04:20:41;11.50;;;2.70;;
62951;SDS011;52163;52.212;-1.002;2022-09-02T04:23:07;8.70;;;2.40;;
62951;SDS011;52163;52.212;-1.002;2022-09-02T04:25:38;12.40;;;3.10;;
62951;SDS011;52163;52.212;-1.002;2022-09-02T04:28:05;10.50;;;2.60;;
62951;SDS011;52163;52.212;-1.002;2022-09-02T04:30:31;10.40;;;2.70;;
62951;SDS011;52163;52.212;-1.002;2022-09-02T04:32:56;7.80;;;2.90;;
62951;SDS011;52163;52.212;-1.002;2022-09-02T04:35:21;9.00;;;2.80;;
62951;SDS011;52163;52.212;-1.002;2022-09-02T04:37:47;8.60;;;2.80;;
62951;SDS011;52163;52.212;-1.002;2022-09-02T04:40:13;8.80;;;2.70;;
62951;SDS011;52163;52.212;-1.002;2022-09-02T04:42:39;11.50;;;2.50;;
62951;SDS011;52163;52.212;-1.002;2022-09-02T04:45:05;6.20;;;2.10;;
62951;SDS011;52163;52.212;-1.002;2022-09-02T04:47:31;8.80;;;2.40;;
62951;SDS011;52163;52.212;-1.002;2022-09-02T04:49:57;6.30;;;2.60;;
62951;SDS011;52163;52.212;-1.002;2022-09-02T04:52:22;6.30;;;2.50;;
62951;SDS011;52163;52.212;-1.002;2022-09-02T04:54:48;7.60;;;2.70;;
62951;SDS011;52163;52.212;-1.002;2022-09-02T04:57:14;11.00;;;2.80;;
62951;SDS011;52163;52.212;-1.002;2022-09-02T04:59:40;6.90;;;2.60;;
62951;SDS011;52163;52.212;-1.002;2022-09-02T05:02:06;6.20;;;2.50;;
62951;SDS011;52163;52.212;-1.002;2022-09-02T05:04:32;6.20;;;2.00;;
62951;SDS011;52163;52.212;-1.002;2022-09-02T05:06:58;8.10;;;2.00;;
62951;SDS011;52163;52.212;-1.002;2022-09-02T05:09:27;9.40;;;2.40;;
62951;SDS011;52163;52.212;-1.002;2022-09-02T05:11:54;9.10;;;2.30;;
62951;SDS011;52163;52.212;-1.002;2022-09-02T05:14:23;10.40;;;2.40;;
62951;SDS011;52163;52.212;-1.002;2022-09-02T05:16:50;11.10;;;2.40;;
62951;SDS011;52163;52.212;-1.002;2022-09-02T05:19:20;9.20;;;2.70;;
62951;SDS011;52163;52.212;-1.002;2022-09-02T05:21:47;8.10;;;2.60;;
62951;SDS011;52163;52.212;-1.002;2022-09-02T05:24:15;8.00;;;2.80;;
62951;SDS011;52163;52.212;-1.002;2022-09-02T05:26:41;8.20;;;2.00;;
62951;SDS011;52163;52.212;-1.002;2022-09-02T05:29:09;6.50;;;2.20;;
62951;SDS011;52163;52.212;-1.002;2022-09-02T05:31:35;7.50;;;2.30;;
62951;SDS011;52163;52.212;-1.002;2022-09-02T05:34:01;8.30;;;2.10;;
62951;SDS011;52163;52.212;-1.002;2022-09-02T05:36:26;8.10;;;2.40;;
62951;SDS011;52163;52.212;-1.002;2022-09-02T05:38:52;7.00;;;2.20;;
62951;SDS011;52163;52.212;-1.002;2022-09-02T05:41:19;7.50;;;2.90;;
62951;SDS011;52163;52.212;-1.002;2022-09-02T05:43:52;9.80;;;2.70;;
62951;SDS011;52163;52.212;-1.002;2022-09-02T05:46:20;10.70;;;2.50;;
62951;SDS011;52163;52.212;-1.002;2022-09-02T05:48:47;9.40;;;2.10;;
62951;SDS011;52163;52.212;-1.002;2022-09-02T05:51:36;7.50;;;2.30;;
62951;SDS011;52163;52.212;-1.002;2022-09-02T05:54:09;11.50;;;2.60;;
62951;SDS011;52163;52.212;-1.002;2022-09-02T05:56:37;7.50;;;2.60;;
62951;SDS011;52163;52.212;-1.002;2022-09-02T05:59:04;11.40;;;2.90;;
62951;SDS011;52163;52.212;-1.002;2022-09-02T06:01:31;8.20;;;2.50;;
62951;SDS011;52163;52.212;-1.002;2022-09-02T06:03:57;7.60;;;2.40;;
62951;SDS011;52163;52.212;-1.002;2022-09-02T06:06:23;8.30;;;2.40;;
62951;SDS011;52163;52.212;-1.002;2022-09-02T06:08:49;7.60;;;1.90;;
62951;SDS011;52163;52.212;-1.002;2022-09-02T06:11:15;7.90;;;2.70;;
62951;SDS011;52163;52.212;-1.002;2022-09-02T06:13:42;6.70;;;2.00;;
62951;SDS011;52163;52.212;-1.002;2022-09-02T06:16:11;6.30;;;2.30;;
62951;SDS011;52163;52.212;-1.002;2022-09-02T06:18:38;8.40;;;2.70;;
62951;SDS011;52163;52.212;-1.002;2022-09-02T06:21:04;9.80;;;2.70;;
62951;SDS011;52163;52.212;-1.002;2022-09-02T06:23:32;8.10;;;2.60;;
62951;SDS011;52163;52.212;-1.002;2022-09-02T06:25:59;11.00;;;2.20;;
62951;SDS011;52163;52.212;-1.002;2022-09-02T06:28:24;8.10;;;2.00;;
62951;SDS011;52163;52.212;-1.002;2022-09-02T06:30:49;8.40;;;2.20;;
62951;SDS011;52163;52.212;-1.002;2022-09-02T06:33:15;7.30;;;2.20;;
62951;SDS011;52163;52.212;-1.002;2022-09-02T06:35:42;7.40;;;2.40;;
62951;SDS011;52163;52.212;-1.002;2022-09-02T06:38:10;8.80;;;3.10;;
62951;SDS011;52163;52.212;-1.002;2022-09-02T06:40:43;7.70;;;2.60;;
62951;SDS011;52163;52.212;-1.002;2022-09-02T06:43:14;10.10;;;2.80;;
62951;SDS011;52163;52.212;-1.002;2022-09-02T06:45:40;7.50;;;2.40;;
62951;SDS011;52163;52.212;-1.002;2022-09-02T06:48:07;7.20;;;2.20;;
62951;SDS011;52163;52.212;-1.002;2022-09-02T06:50:33;10.80;;;2.50;;
62951;SDS011;52163;52.212;-1.002;2022-09-02T06:53:05;4.80;;;2.30;;
62951;SDS011;52163;52.212;-1.002;2022-09-02T06:55:33;11.50;;;3.00;;
62951;SDS011;52163;52.212;-1.002;2022-09-02T06:58:00;23.50;;;10.70;;
62951;SDS011;52163;52.212;-1.002;2022-09-02T07:00:26;13.70;;;3.40;;
62951;SDS011;52163;52.212;-1.002;2022-09-02T07:02:51;11.50;;;2.80;;
62951;SDS011;52163;52.212;-1.002;2022-09-02T07:05:37;9.70;;;3.00;;
62951;SDS011;52163;52.212;-1.002;2022-09-02T07:08:03;11.60;;;3.00;;
62951;SDS011;52163;52.212;-1.002;2022-09-02T07:10:28;9.30;;;2.80;;
62951;SDS011;52163;52.212;-1.002;2022-09-02T07:12:54;14.30;;;2.90;;
62951;SDS011;52163;52.212;-1.002;2022-09-02T07:15:19;11.50;;;2.80;;
62951;SDS011;52163;52.212;-1.002;2022-09-02T07:17:44;9.90;;;2.80;;
62951;SDS011;52163;52.212;-1.002;2022-09-02T07:20:10;9.40;;;3.20;;
62951;SDS011;52163;52.212;-1.002;2022-09-02T07:22:36;7.60;;;2.80;;
62951;SDS011;52163;52.212;-1.002;2022-09-02T07:25:03;7.00;;;2.50;;
62951;SDS011;52163;52.212;-1.002;2022-09-02T07:27:29;8.40;;;3.40;;
62951;SDS011;52163;52.212;-1.002;2022-09-02T07:29:55;11.60;;;3.50;;
62951;SDS011;52163;52.212;-1.002;2022-09-02T07:32:21;15.50;;;3.30;;
62951;SDS011;52163;52.212;-1.002;2022-09-02T07:34:46;8.20;;;2.80;;
62951;SDS011;52163;52.212;-1.002;2022-09-02T07:37:12;7.10;;;2.70;;
62951;SDS011;52163;52.212;-1.002;2022-09-02T07:39:38;10.80;;;2.80;;
62951;SDS011;52163;52.212;-1.002;2022-09-02T07:42:03;8.50;;;2.60;;
62951;SDS011;52163;52.212;-1.002;2022-09-02T07:44:30;9.50;;;3.00;;
62951;SDS011;52163;52.212;-1.002;2022-09-02T07:46:56;9.20;;;3.00;;
62951;SDS011;52163;52.212;-1.002;2022-09-02T07:49:21;8.90;;;2.30;;
62951;SDS011;52163;52.212;-1.002;2022-09-02T07:51:48;9.90;;;3.30;;
62951;SDS011;52163;52.212;-1.002;2022-09-02T07:54:15;11.90;;;3.00;;
62951;SDS011;52163;52.212;-1.002;2022-09-02T07:56:43;11.60;;;3.10;;
62951;SDS011;52163;52.212;-1.002;2022-09-02T07:59:09;7.30;;;2.40;;
62951;SDS011;52163;52.212;-1.002;2022-09-02T08:01:35;11.50;;;3.40;;
62951;SDS011;52163;52.212;-1.002;2022-09-02T08:04:02;11.80;;;3.00;;
62951;SDS011;52163;52.212;-1.002;2022-09-02T08:06:28;8.60;;;3.80;;
62951;SDS011;52163;52.212;-1.002;2022-09-02T08:08:55;8.00;;;3.60;;
62951;SDS011;52163;52.212;-1.002;2022-09-02T08:11:21;14.10;;;5.00;;
62951;SDS011;52163;52.212;-1.002;2022-09-02T08:13:48;18.90;;;6.40;;
62951;SDS011;52163;52.212;-1.002;2022-09-02T08:16:14;13.10;;;7.30;;
62951;SDS011;52163;52.212;-1.002;2022-09-02T08:18:40;17.70;;;8.80;;
62951;SDS011;52163;52.212;-1.002;2022-09-02T08:21:06;21.10;;;8.90;;
62951;SDS011;52163;52.212;-1.002;2022-09-02T08:23:31;19.20;;;9.00;;
62951;SDS011;52163;52.212;-1.002;2022-09-02T08:26:01;14.60;;;7.30;;
62951;SDS011;52163;52.212;-1.002;2022-09-02T08:28:27;27.40;;;13.30;;
62951;SDS011;52163;52.212;-1.002;2022-09-02T08:30:53;18.60;;;8.40;;
62951;SDS011;52163;52.212;-1.002;2022-09-02T08:33:21;21.00;;;10.80;;
62951;SDS011;52163;52.212;-1.002;2022-09-02T08:35:47;18.20;;;6.40;;
62951;SDS011;52163;52.212;-1.002;2022-09-02T08:38:12;12.90;;;4.70;;
62951;SDS011;52163;52.212;-1.002;2022-09-02T08:40:39;17.90;;;5.80;;
62951;SDS011;52163;52.212;-1.002;2022-09-02T08:46:10;12.50;;;4.70;;
62951;SDS011;52163;52.212;-1.002;2022-09-02T08:51:24;11.00;;;4.20;;
62951;SDS011;52163;52.212;-1.002;2022-09-02T08:54:02;14.20;;;4.70;;
62951;SDS011;52163;52.212;-1.002;2022-09-02T08:56:31;10.80;;;5.40;;
62951;SDS011;52163;52.212;-1.002;2022-09-02T08:58:57;13.60;;;5.40;;
62951;SDS011;52163;52.212;-1.002;2022-09-02T09:01:32;14.70;;;4.80;;
62951;SDS011;52163;52.212;-1.002;2022-09-02T09:10:05;13.50;;;4.50;;
62951;SDS011;52163;52.212;-1.002;2022-09-02T09:12:58;13.10;;;3.80;;
62951;SDS011;52163;52.212;-1.002;2022-09-02T09:15:47;10.50;;;4.00;;
62951;SDS011;52163;52.212;-1.002;2022-09-02T09:18:39;12.40;;;3.80;;
62951;SDS011;52163;52.212;-1.002;2022-09-02T09:21:10;15.30;;;4.10;;
62951;SDS011;52163;52.212;-1.002;2022-09-02T09:23:39;10.40;;;3.60;;
62951;SDS011;52163;52.212;-1.002;2022-09-02T09:26:12;11.80;;;3.30;;
62951;SDS011;52163;52.212;-1.002;2022-09-02T09:28:45;16.90;;;3.80;;
62951;SDS011;52163;52.212;-1.002;2022-09-02T09:31:13;9.90;;;3.30;;
62951;SDS011;52163;52.212;-1.002;2022-09-02T09:34:00;11.00;;;4.00;;
62951;SDS011;52163;52.212;-1.002;2022-09-02T09:41:49;6.90;;;3.30;;
62951;SDS011;52163;52.212;-1.002;2022-09-02T09:46:59;14.60;;;4.60;;
62951;SDS011;52163;52.212;-1.002;2022-09-02T09:49:30;10.30;;;3.70;;
62951;SDS011;52163;52.212;-1.002;2022-09-02T09:51:59;15.60;;;4.10;;
62951;SDS011;52163;52.212;-1.002;2022-09-02T09:54:25;14.30;;;4.40;;
62951;SDS011;52163;52.212;-1.002;2022-09-02T09:56:52;13.50;;;4.70;;
62951;SDS011;52163;52.212;-1.002;2022-09-02T10:01:57;11.90;;;4.80;;
62951;SDS011;52163;52.212;-1.002;2022-09-02T10:04:25;12.60;;;4.10;;
62951;SDS011;52163;52.212;-1.002;2022-09-02T10:06:56;10.10;;;3.80;;
62951;SDS011;52163;52.212;-1.002;2022-09-02T10:12:06;11.60;;;4.80;;
62951;SDS011;52163;52.212;-1.002;2022-09-02T10:14:34;16.60;;;5.50;;
62951;SDS011;52163;52.212;-1.002;2022-09-02T10:17:17;15.30;;;5.00;;
62951;SDS011;52163;52.212;-1.002;2022-09-02T10:20:00;13.70;;;4.70;;
62951;SDS011;52163;52.212;-1.002;2022-09-02T10:30:44;10.60;;;4.10;;
62951;SDS011;52163;52.212;-1.002;2022-09-02T10:35:50;14.30;;;4.80;;
62951;SDS011;52163;52.212;-1.002;2022-09-02T10:41:13;10.80;;;4.30;;
62951;SDS011;52163;52.212;-1.002;2022-09-02T10:44:06;15.10;;;4.70;;
62951;SDS011;52163;52.212;-1.002;2022-09-02T10:54:52;16.50;;;4.80;;
62951;SDS011;52163;52.212;-1.002;2022-09-02T10:57:25;11.20;;;5.30;;
62951;SDS011;52163;52.212;-1.002;2022-09-02T11:00:29;13.40;;;4.80;;
62951;SDS011;52163;52.212;-1.002;2022-09-02T11:05:19;11.40;;;5.30;;
62951;SDS011;52163;52.212;-1.002;2022-09-02T11:08:00;16.10;;;5.50;;
62951;SDS011;52163;52.212;-1.002;2022-09-02T11:10:33;14.70;;;5.50;;
62951;SDS011;52163;52.212;-1.002;2022-09-02T11:13:10;12.50;;;5.10;;
62951;SDS011;52163;52.212;-1.002;2022-09-02T11:18:39;22.00;;;5.30;;
62951;SDS011;52163;52.212;-1.002;2022-09-02T11:24:03;10.60;;;5.50;;
62951;SDS011;52163;52.212;-1.002;2022-09-02T11:26:43;14.00;;;6.60;;
62951;SDS011;52163;52.212;-1.002;2022-09-02T11:29:19;21.30;;;8.80;;
62951;SDS011;52163;52.212;-1.002;2022-09-02T11:32:01;23.10;;;9.80;;
62951;SDS011;52163;52.212;-1.002;2022-09-02T11:34:53;25.30;;;12.90;;
62951;SDS011;52163;52.212;-1.002;2022-09-02T11:37:30;18.20;;;8.40;;
62951;SDS011;52163;52.212;-1.002;2022-09-02T11:40:06;23.50;;;10.80;;
62951;SDS011;52163;52.212;-1.002;2022-09-02T11:56:42;17.50;;;8.60;;
62951;SDS011;52163;52.212;-1.002;2022-09-02T11:59:21;24.50;;;10.50;;
62951;SDS011;52163;52.212;-1.002;2022-09-02T12:02:08;18.50;;;8.20;;
62951;SDS011;52163;52.212;-1.002;2022-09-02T12:04:35;19.40;;;7.50;;
62951;SDS011;52163;52.212;-1.002;2022-09-02T12:09:45;20.40;;;10.70;;
62951;SDS011;52163;52.212;-1.002;2022-09-02T12:17:38;16.80;;;6.00;;
62951;SDS011;52163;52.212;-1.002;2022-09-02T12:20:05;21.80;;;7.60;;
62951;SDS011;52163;52.212;-1.002;2022-09-02T12:22:39;16.30;;;7.00;;
62951;SDS011;52163;52.212;-1.002;2022-09-02T12:27:49;12.70;;;7.10;;
62951;SDS011;52163;52.212;-1.002;2022-09-02T12:33:38;27.60;;;10.90;;
62951;SDS011;52163;52.212;-1.002;2022-09-02T12:36:09;24.10;;;9.60;;
62951;SDS011;52163;52.212;-1.002;2022-09-02T12:47:29;19.70;;;8.40;;
62951;SDS011;52163;52.212;-1.002;2022-09-02T12:50:30;18.90;;;6.90;;
62951;SDS011;52163;52.212;-1.002;2022-09-02T12:56:06;18.10;;;7.40;;
62951;SDS011;52163;52.212;-1.002;2022-09-02T12:58:54;16.80;;;7.10;;
62951;SDS011;52163;52.212;-1.002;2022-09-02T13:01:36;13.80;;;5.60;;
62951;SDS011;52163;52.212;-1.002;2022-09-02T13:07:33;16.50;;;7.80;;
62951;SDS011;52163;52.212;-1.002;2022-09-02T13:16:09;15.60;;;7.60;;
62951;SDS011;52163;52.212;-1.002;2022-09-02T13:30:14;18.80;;;7.20;;
62951;SDS011;52163;52.212;-1.002;2022-09-02T13:32:43;13.00;;;5.70;;
62951;SDS011;52163;52.212;-1.002;2022-09-02T13:35:19;15.20;;;6.00;;
62951;SDS011;52163;52.212;-1.002;2022-09-02T13:37:56;15.00;;;5.60;;
62951;SDS011;52163;52.212;-1.002;2022-09-02T13:40:28;15.80;;;5.50;;
62951;SDS011;52163;52.212;-1.002;2022-09-02T13:42:55;19.70;;;6.30;;
62951;SDS011;52163;52.212;-1.002;2022-09-02T13:45:24;17.20;;;7.10;;
62951;SDS011;52163;52.212;-1.002;2022-09-02T13:47:52;16.20;;;5.50;;
62951;SDS011;52163;52.212;-1.002;2022-09-02T13:50:20;22.70;;;8.10;;
62951;SDS011;52163;52.212;-1.002;2022-09-02T13:52:52;16.80;;;7.30;;
62951;SDS011;52163;52.212;-1.002;2022-09-02T13:55:20;13.30;;;7.00;;
62951;SDS011;52163;52.212;-1.002;2022-09-02T13:57:54;8.90;;;4.80;;
62951;SDS011;52163;52.212;-1.002;2022-09-02T14:03:03;16.20;;;6.20;;
62951;SDS011;52163;52.212;-1.002;2022-09-02T14:05:31;10.90;;;5.10;;
62951;SDS011;52163;52.212;-1.002;2022-09-02T14:08:00;9.90;;;5.30;;
62951;SDS011;52163;52.212;-1.002;2022-09-02T14:10:30;14.60;;;5.00;;
62951;SDS011;52163;52.212;-1.002;2022-09-02T14:12:58;10.70;;;4.20;;
62951;SDS011;52163;52.212;-1.002;2022-09-02T14:15:28;14.70;;;4.80;;
62951;SDS011;52163;52.212;-1.002;2022-09-02T14:18:05;12.80;;;5.10;;
62951;SDS011;52163;52.212;-1.002;2022-09-02T14:20:31;13.60;;;5.40;;
62951;SDS011;52163;52.212;-1.002;2022-09-02T14:22:57;15.20;;;4.80;;
62951;SDS011;52163;52.212;-1.002;2022-09-02T14:25:24;13.40;;;4.70;;
62951;SDS011;52163;52.212;-1.002;2022-09-02T14:27:52;15.60;;;5.30;;
62951;SDS011;52163;52.212;-1.002;2022-09-02T14:30:39;16.80;;;5.20;;
62951;SDS011;52163;52.212;-1.002;2022-09-02T14:33:15;13.60;;;4.60;;
62951;SDS011;52163;52.212;-1.002;2022-09-02T14:38:28;9.60;;;4.50;;
62951;SDS011;52163;52.212;-1.002;2022-09-02T14:41:07;14.40;;;4.40;;
62951;SDS011;52163;52.212;-1.002;2022-09-02T14:43:44;14.70;;;4.30;;
62951;SDS011;52163;52.212;-1.002;2022-09-02T14:46:22;9.90;;;4.20;;
62951;SDS011;52163;52.212;-1.002;2022-09-02T14:51:31;8.60;;;4.20;;
62951;SDS011;52163;52.212;-1.002;2022-09-02T14:54:09;10.50;;;3.90;;
62951;SDS011;52163;52.212;-1.002;2022-09-02T14:56:45;9.80;;;4.00;;
62951;SDS011;52163;52.212;-1.002;2022-09-02T14:59:17;11.20;;;4.10;;
62951;SDS011;52163;52.212;-1.002;2022-09-02T15:01:45;9.20;;;4.10;;
62951;SDS011;52163;52.212;-1.002;2022-09-02T15:04:14;12.30;;;4.30;;
62951;SDS011;52163;52.212;-1.002;2022-09-02T15:06:40;19.40;;;5.00;;
62951;SDS011;52163;52.212;-1.002;2022-09-02T15:09:07;13.30;;;4.70;;
62951;SDS011;52163;52.212;-1.002;2022-09-02T15:11:32;14.50;;;5.00;;
62951;SDS011;52163;52.212;-1.002;2022-09-02T15:13:58;14.20;;;4.90;;
62951;SDS011;52163;52.212;-1.002;2022-09-02T15:16:23;11.30;;;5.00;;
62951;SDS011;52163;52.212;-1.002;2022-09-02T15:18:49;13.90;;;4.30;;
62951;SDS011;52163;52.212;-1.002;2022-09-02T15:21:16;13.90;;;4.60;;
62951;SDS011;52163;52.212;-1.002;2022-09-02T15:23:42;11.30;;;4.80;;
62951;SDS011;52163;52.212;-1.002;2022-09-02T15:26:08;12.20;;;5.00;;
62951;SDS011;52163;52.212;-1.002;2022-09-02T15:28:34;15.90;;;4.80;;
62951;SDS011;52163;52.212;-1.002;2022-09-02T15:31:00;14.80;;;5.00;;
62951;SDS011;52163;52.212;-1.002;2022-09-02T15:33:26;12.60;;;6.40;;
62951;SDS011;52163;52.212;-1.002;2022-09-02T15:35:53;16.00;;;5.30;;
62951;SDS011;52163;52.212;-1.002;2022-09-02T15:38:19;8.70;;;5.10;;
62951;SDS011;52163;52.212;-1.002;2022-09-02T15:40:45;14.40;;;5.50;;
62951;SDS011;52163;52.212;-1.002;2022-09-02T15:43:10;13.20;;;4.70;;
62951;SDS011;52163;52.212;-1.002;2022-09-02T15:45:45;9.60;;;4.80;;
62951;SDS011;52163;52.212;-1.002;2022-09-02T15:48:12;14.10;;;5.90;;
62951;SDS011;52163;52.212;-1.002;2022-09-02T15:50:38;10.20;;;4.90;;
62951;SDS011;52163;52.212;-1.002;2022-09-02T15:53:03;13.30;;;4.80;;
62951;SDS011;52163;52.212;-1.002;2022-09-02T15:55:32;9.70;;;4.60;;
62951;SDS011;52163;52.212;-1.002;2022-09-02T15:57:58;8.90;;;4.60;;
62951;SDS011;52163;52.212;-1.002;2022-09-02T16:00:24;10.30;;;5.10;;
62951;SDS011;52163;52.212;-1.002;2022-09-02T16:02:50;10.30;;;4.40;;
62951;SDS011;52163;52.212;-1.002;2022-09-02T16:05:16;12.20;;;5.00;;
62951;SDS011;52163;52.212;-1.002;2022-09-02T16:07:42;17.50;;;5.70;;
62951;SDS011;52163;52.212;-1.002;2022-09-02T16:10:08;9.50;;;4.10;;
62951;SDS011;52163;52.212;-1.002;2022-09-02T16:12:35;10.60;;;6.60;;
62951;SDS011;52163;52.212;-1.002;2022-09-02T16:15:00;13.20;;;5.10;;
62951;SDS011;52163;52.212;-1.002;2022-09-02T16:17:26;17.30;;;6.20;;
62951;SDS011;52163;52.212;-1.002;2022-09-02T16:19:51;11.20;;;4.70;;
62951;SDS011;52163;52.212;-1.002;2022-09-02T16:22:18;10.50;;;4.80;;
62951;SDS011;52163;52.212;-1.002;2022-09-02T16:24:43;11.50;;;5.10;;
62951;SDS011;52163;52.212;-1.002;2022-09-02T16:27:09;13.70;;;5.30;;
62951;SDS011;52163;52.212;-1.002;2022-09-02T16:29:34;10.80;;;6.00;;
62951;SDS011;52163;52.212;-1.002;2022-09-02T16:32:01;11.00;;;5.80;;
62951;SDS011;52163;52.212;-1.002;2022-09-02T16:34:28;10.70;;;5.00;;
62951;SDS011;52163;52.212;-1.002;2022-09-02T16:36:53;16.20;;;5.80;;
62951;SDS011;52163;52.212;-1.002;2022-09-02T16:39:19;14.50;;;5.00;;
62951;SDS011;52163;52.212;-1.002;2022-09-02T16:41:46;9.40;;;5.10;;
62951;SDS011;52163;52.212;-1.002;2022-09-02T16:44:20;17.40;;;6.30;;